createdAt,value
2022-12-08T00:01:20.788Z,93.93
2022-12-08T00:03:49.256Z,93.87
2022-12-08T00:06:44.039Z,93.99
2022-12-08T00:09:24.312Z,93.64
2022-12-08T00:11:54.250Z,93.63
2022-12-08T00:14:25.723Z,93.22
2022-12-08T00:16:53.694Z,93.32
2022-12-08T00:19:21.695Z,92.73
2022-12-08T00:21:51.070Z,92.99
2022-12-08T00:24:19.880Z,93.33
2022-12-08T00:26:48.213Z,93.12
2022-12-08T00:29:17.736Z,93.24
2022-12-08T00:31:45.749Z,93.19
2022-12-08T00:34:13.983Z,93.41
2022-12-08T00:36:41.820Z,93.45
2022-12-08T00:39:11.779Z,93.28
2022-12-08T00:41:57.205Z,93.33
2022-12-08T00:44:25.046Z,93.43
2022-12-08T00:46:52.776Z,93.51
2022-12-08T00:49:20.869Z,93.47
2022-12-08T00:51:48.623Z,93.57
2022-12-08T00:54:18.115Z,93.33
2022-12-08T00:56:46.247Z,93.52
2022-12-08T00:59:13.920Z,93.32
2022-12-08T01:01:42.063Z,93.44
2022-12-08T01:04:15.445Z,93.27
2022-12-08T01:06:43.510Z,93.25
2022-12-08T01:09:13.648Z,93.07
2022-12-08T01:11:42.900Z,92.91
2022-12-08T01:14:10.582Z,93.06
2022-12-08T01:16:38.902Z,93.12
2022-12-08T01:19:06.676Z,93.34
2022-12-08T01:21:34.359Z,93.48
2022-12-08T01:24:02.844Z,93.37
2022-12-08T01:26:30.720Z,93.68
2022-12-08T01:28:59.903Z,93.70
2022-12-08T01:31:27.759Z,93.91
2022-12-08T01:33:55.500Z,94.16
2022-12-08T01:36:26.362Z,94.28
2022-12-08T01:38:55.333Z,94.46
2022-12-08T01:41:26.164Z,94.68
2022-12-08T01:44:01.456Z,94.98
2022-12-08T01:46:30.730Z,95.22
2022-12-08T01:49:04.143Z,95.18
2022-12-08T01:51:36.690Z,95.01
2022-12-08T01:54:06.813Z,95.46
2022-12-08T01:56:38.678Z,95.46
2022-12-08T01:59:08.084Z,95.23
2022-12-08T02:01:35.961Z,95.18
2022-12-08T02:04:05.236Z,95.21
2022-12-08T02:06:35.964Z,95.10
2022-12-08T02:09:06.573Z,94.88
2022-12-08T02:11:34.250Z,94.99
2022-12-08T02:14:05.208Z,94.88
2022-12-08T02:16:42.275Z,94.82
2022-12-08T02:19:44.936Z,94.73
2022-12-08T02:22:16.836Z,94.98
2022-12-08T02:24:51.816Z,94.72
2022-12-08T02:27:38.750Z,94.52
2022-12-08T02:30:25.804Z,94.21
2022-12-08T02:33:43.035Z,94.25
2022-12-08T02:36:18.729Z,94.02
2022-12-08T02:38:53.605Z,93.77
2022-12-08T02:41:32.276Z,93.89
2022-12-08T02:44:06.825Z,93.69
2022-12-08T02:46:40.583Z,93.45
2022-12-08T02:49:10.619Z,93.70
2022-12-08T02:51:38.358Z,93.69
2022-12-08T02:54:06.282Z,93.38
2022-12-08T02:56:51.745Z,93.20
2022-12-08T02:59:31.915Z,93.01
2022-12-08T03:02:18.845Z,92.86
2022-12-08T03:04:57.733Z,93.13
2022-12-08T03:07:32.388Z,93.53
2022-12-08T03:10:05.215Z,93.21
2022-12-08T03:12:39.297Z,92.98
2022-12-08T03:15:11.679Z,93.01
2022-12-08T03:17:41.811Z,92.53
2022-12-08T03:20:14.995Z,92.73
2022-12-08T03:22:44.018Z,92.68
2022-12-08T03:25:15.906Z,92.57
2022-12-08T03:27:44.298Z,92.29
2022-12-08T03:30:12.770Z,92.66
2022-12-08T03:32:47.774Z,92.45
2022-12-08T03:35:21.424Z,92.46
2022-12-08T03:37:49.420Z,92.59
2022-12-08T03:40:20.106Z,92.24
2022-12-08T03:42:47.788Z,92.55
2022-12-08T03:45:15.595Z,92.55
2022-12-08T03:47:43.640Z,92.48
2022-12-08T03:50:12.791Z,92.41
2022-12-08T03:52:41.889Z,92.38
2022-12-08T03:55:10.357Z,92.68
2022-12-08T03:57:38.062Z,92.85
2022-12-08T04:00:07.766Z,93.17
2022-12-08T04:02:35.588Z,93.13
2022-12-08T04:05:03.391Z,93.33
2022-12-08T04:07:31.392Z,93.43
2022-12-08T04:10:00.467Z,93.65
2022-12-08T04:12:28.147Z,93.87
2022-12-08T04:14:55.873Z,94.09
2022-12-08T04:17:23.525Z,94.15
2022-12-08T04:19:51.237Z,93.99
2022-12-08T04:22:18.983Z,93.80
2022-12-08T04:24:46.701Z,93.82
2022-12-08T04:27:15.765Z,94.01
2022-12-08T04:29:43.551Z,94.11
2022-12-08T04:32:11.277Z,94.33
2022-12-08T04:34:39.007Z,94.19
2022-12-08T04:37:06.775Z,94.49
2022-12-08T04:39:34.529Z,94.51
2022-12-08T04:42:02.227Z,94.39
2022-12-08T04:44:31.361Z,94.50
2022-12-08T04:46:59.153Z,94.55
2022-12-08T04:49:26.893Z,94.45
2022-12-08T04:51:54.540Z,94.48
2022-12-08T04:54:22.234Z,94.60
2022-12-08T04:56:50.006Z,94.55
2022-12-08T04:59:17.656Z,94.57
2022-12-08T05:01:46.831Z,94.59
2022-12-08T05:04:14.709Z,94.30
2022-12-08T05:06:42.408Z,94.27
2022-12-08T05:09:10.338Z,94.39
2022-12-08T05:11:46.943Z,94.27
2022-12-08T05:14:18.308Z,94.10
2022-12-08T05:16:48.504Z,94.07
2022-12-08T05:19:17.503Z,94.06
2022-12-08T05:21:45.996Z,94.24
2022-12-08T05:24:13.761Z,94.18
2022-12-08T05:26:41.407Z,94.10
2022-12-08T05:29:09.122Z,93.92
2022-12-08T05:31:36.859Z,93.80
2022-12-08T05:34:05.998Z,93.77
2022-12-08T05:36:33.675Z,93.62
2022-12-08T05:39:01.408Z,93.94
2022-12-08T05:41:29.112Z,94.37
2022-12-08T05:43:56.774Z,94.44
2022-12-08T05:46:29.231Z,94.21
2022-12-08T05:48:57.112Z,94.49
2022-12-08T05:51:26.166Z,94.64
2022-12-08T05:53:54.659Z,94.57
2022-12-08T05:56:23.724Z,94.47
2022-12-08T05:58:51.682Z,94.54
2022-12-08T06:01:24.377Z,94.56
2022-12-08T06:03:52.258Z,94.74
2022-12-08T06:06:20.460Z,94.88
2022-12-08T06:08:49.829Z,95.10
2022-12-08T06:11:22.592Z,95.21
2022-12-08T06:13:50.773Z,95.14
2022-12-08T06:16:21.725Z,95.34
2022-12-08T06:18:49.783Z,95.53
2022-12-08T06:21:18.440Z,95.66
2022-12-08T06:23:50.780Z,95.57
2022-12-08T06:26:19.006Z,95.76
2022-12-08T06:28:46.707Z,95.72
2022-12-08T06:31:17.478Z,95.68
2022-12-08T06:33:46.270Z,95.95
2022-12-08T06:36:15.621Z,96.13
2022-12-08T06:38:44.108Z,96.24
2022-12-08T06:41:13.861Z,96.20
2022-12-08T06:43:42.015Z,96.29
2022-12-08T06:46:12.045Z,96.14
2022-12-08T06:48:39.983Z,96.18
2022-12-08T06:51:09.544Z,96.30
2022-12-08T06:53:37.752Z,96.76
2022-12-08T06:56:06.039Z,96.89
2022-12-08T06:58:35.507Z,96.83
2022-12-08T07:01:08.505Z,97.06
2022-12-08T07:03:36.672Z,97.17
2022-12-08T07:06:05.108Z,97.15
2022-12-08T07:08:33.232Z,97.38
2022-12-08T07:11:01.285Z,97.29
2022-12-08T07:13:29.002Z,97.65
2022-12-08T07:15:58.147Z,97.85
2022-12-08T07:18:25.896Z,97.83
2022-12-08T07:20:53.598Z,98.12
2022-12-08T07:23:21.348Z,98.17
2022-12-08T07:25:49.051Z,98.07
2022-12-08T07:28:16.721Z,98.09
2022-12-08T07:30:44.567Z,97.82
2022-12-08T07:33:13.645Z,97.68
2022-12-08T07:35:46.366Z,97.56
2022-12-08T07:38:16.854Z,97.42
2022-12-08T07:40:44.620Z,97.32
2022-12-08T07:43:12.334Z,97.02
2022-12-08T07:45:41.652Z,97.14
2022-12-08T07:48:09.583Z,96.94
2022-12-08T07:50:39.178Z,97.06
2022-12-08T07:53:07.295Z,97.30
2022-12-08T07:55:35.299Z,96.85
2022-12-08T07:58:03.008Z,96.73
2022-12-08T08:00:31.610Z,96.99
2022-12-08T08:02:59.516Z,96.86
2022-12-08T08:05:27.417Z,96.65
2022-12-08T08:07:56.557Z,96.59
2022-12-08T08:10:24.310Z,96.91
2022-12-08T08:12:52.143Z,96.85
2022-12-08T08:15:21.315Z,96.41
2022-12-08T08:17:51.391Z,96.59
2022-12-08T08:20:19.492Z,96.26
2022-12-08T08:22:47.516Z,95.98
2022-12-08T08:25:17.439Z,95.98
2022-12-08T08:27:45.694Z,95.43
2022-12-08T08:30:20.139Z,95.08
2022-12-08T08:32:48.315Z,95.03
2022-12-08T08:35:15.995Z,94.98
2022-12-08T08:37:48.502Z,94.92
2022-12-08T08:40:18.247Z,94.55
2022-12-08T08:42:46.052Z,94.38
2022-12-08T08:45:13.828Z,94.43
2022-12-08T08:47:41.653Z,94.59
2022-12-08T08:50:10.743Z,94.35
2022-12-08T08:52:38.444Z,93.98
2022-12-08T08:55:06.940Z,93.63
2022-12-08T08:57:36.045Z,93.65
2022-12-08T09:00:04.985Z,93.73
2022-12-08T09:02:32.894Z,93.48
2022-12-08T09:05:00.723Z,93.62
2022-12-08T09:07:28.593Z,93.38
2022-12-08T09:10:01.400Z,92.99
2022-12-08T09:12:29.788Z,92.81
2022-12-08T09:14:59.079Z,92.80
2022-12-08T09:17:26.812Z,92.65
2022-12-08T09:19:54.546Z,92.66
2022-12-08T09:22:23.683Z,92.23
2022-12-08T09:24:51.387Z,92.36
2022-12-08T09:27:19.281Z,92.41
2022-12-08T09:29:46.955Z,92.30
2022-12-08T09:32:16.054Z,92.09
2022-12-08T09:34:47.684Z,91.61
2022-12-08T09:37:19.592Z,91.62
2022-12-08T09:39:48.038Z,91.51
2022-12-08T09:42:26.681Z,91.04
2022-12-08T09:45:03.891Z,90.38
2022-12-08T09:47:36.994Z,90.26
2022-12-08T09:50:09.688Z,90.26
2022-12-08T09:52:42.707Z,90.11
2022-12-08T09:55:18.277Z,89.85
2022-12-08T09:57:51.635Z,89.04
2022-12-08T10:00:23.443Z,88.43
2022-12-08T10:02:52.648Z,88.01
2022-12-08T10:05:21.738Z,87.56
2022-12-08T10:07:59.904Z,87.20
2022-12-08T10:10:36.721Z,86.53
2022-12-08T10:13:16.590Z,86.50
2022-12-08T10:15:51.603Z,85.07
2022-12-08T10:18:24.652Z,85.05
2022-12-08T10:20:59.003Z,84.46
2022-12-08T10:23:32.948Z,84.56
2022-12-08T10:26:03.419Z,83.75
2022-12-08T10:28:33.165Z,83.39
2022-12-08T10:31:01.095Z,83.47
2022-12-08T10:33:33.492Z,83.54
2022-12-08T10:36:02.916Z,83.89
2022-12-08T10:38:31.986Z,84.04
2022-12-08T10:41:05.652Z,83.74
2022-12-08T10:43:34.430Z,83.67
2022-12-08T10:46:13.729Z,83.28
2022-12-08T10:48:51.328Z,83.06
2022-12-08T10:51:30.479Z,83.32
2022-12-08T10:53:58.269Z,83.26
2022-12-08T10:56:29.022Z,83.00
2022-12-08T10:59:12.956Z,82.95
2022-12-08T11:01:42.556Z,82.99
2022-12-08T11:04:18.398Z,82.58
2022-12-08T11:06:47.504Z,82.33
2022-12-08T11:09:37.894Z,82.29
2022-12-08T11:12:13.753Z,81.22
2022-12-08T11:14:50.377Z,80.90
2022-12-08T11:17:25.473Z,81.35
2022-12-08T11:20:00.361Z,81.11
2022-12-08T11:22:33.475Z,80.73
2022-12-08T11:25:04.280Z,79.34
2022-12-08T11:27:34.453Z,80.19
2022-12-08T11:30:03.460Z,80.93
2022-12-08T11:32:31.935Z,81.24
2022-12-08T11:35:04.836Z,81.17
2022-12-08T11:37:35.175Z,81.28
2022-12-08T11:40:09.040Z,80.72
2022-12-08T11:42:47.029Z,81.33
2022-12-08T11:45:22.919Z,81.04
2022-12-08T11:47:58.161Z,81.09
2022-12-08T11:50:32.741Z,81.55
2022-12-08T11:53:02.786Z,81.41
2022-12-08T11:55:38.780Z,81.59
2022-12-08T11:58:15.807Z,81.49
2022-12-08T12:00:43.776Z,81.58
2022-12-08T12:03:22.506Z,82.04
2022-12-08T12:06:18.637Z,81.12
2022-12-08T12:09:07.893Z,81.55
2022-12-08T12:12:09.495Z,81.78
2022-12-08T12:14:57.796Z,81.22
2022-12-08T12:17:35.544Z,81.48
2022-12-08T12:20:12.084Z,81.60
2022-12-08T12:22:43.015Z,81.15
2022-12-08T12:25:19.057Z,81.21
2022-12-08T12:27:49.120Z,80.75
2022-12-08T12:30:22.820Z,80.77
2022-12-08T12:32:56.520Z,80.19
2022-12-08T12:35:34.525Z,80.60
2022-12-08T12:38:29.365Z,77.79
2022-12-08T12:41:02.262Z,76.79
2022-12-08T12:43:31.452Z,77.95
2022-12-08T12:46:32.905Z,79.35
2022-12-08T12:49:33.191Z,79.76
2022-12-08T12:52:00.903Z,79.83
2022-12-08T12:54:30.395Z,80.31
2022-12-08T12:57:17.411Z,80.66
2022-12-08T12:59:51.598Z,81.26
2022-12-08T13:02:25.801Z,80.80
2022-12-08T13:04:57.952Z,79.90
2022-12-08T13:07:27.955Z,80.40
2022-12-08T13:10:01.290Z,80.12
2022-12-08T13:12:30.690Z,80.10
2022-12-08T13:15:05.253Z,79.52
2022-12-08T13:17:34.722Z,80.09
2022-12-08T13:20:06.328Z,80.32
2022-12-08T13:23:02.981Z,80.84
2022-12-08T13:26:13.666Z,81.07
2022-12-08T13:29:15.053Z,82.06
2022-12-08T13:31:50.115Z,81.98
2022-12-08T13:34:22.894Z,82.23
2022-12-08T13:37:03.249Z,82.53
2022-12-08T13:39:36.443Z,82.72
2022-12-08T13:42:14.679Z,83.21
2022-12-08T13:48:05.959Z,83.62
2022-12-08T13:59:11.048Z,83.75
2022-12-08T14:01:45.761Z,83.57
2022-12-08T14:07:05.984Z,83.39
2022-12-08T14:09:37.505Z,83.53
2022-12-08T14:12:08.392Z,83.61
2022-12-08T14:17:29.004Z,84.33
2022-12-08T14:19:59.158Z,84.56
2022-12-08T14:22:34.341Z,84.79
2022-12-08T14:25:02.729Z,84.96
2022-12-08T14:27:37.175Z,85.09
2022-12-08T14:30:08.569Z,85.41
2022-12-08T14:32:40.054Z,85.28
2022-12-08T14:35:20.700Z,85.67
2022-12-08T14:37:51.098Z,85.75
2022-12-08T14:40:24.353Z,85.80
2022-12-08T14:42:55.311Z,85.78
2022-12-08T14:45:24.460Z,85.90
2022-12-08T14:47:52.328Z,85.71
2022-12-08T14:50:41.980Z,85.96
2022-12-08T14:53:16.049Z,86.31
2022-12-08T14:55:45.751Z,86.43
2022-12-08T14:58:19.700Z,86.21
2022-12-08T15:00:52.230Z,86.64
2022-12-08T15:03:22.962Z,86.84
2022-12-08T15:05:52.918Z,87.18
2022-12-08T15:08:20.787Z,86.93
2022-12-08T15:11:08.642Z,86.96
2022-12-08T15:13:36.411Z,87.27
2022-12-08T15:16:27.571Z,87.43
2022-12-08T15:19:17.365Z,87.80
2022-12-08T15:21:46.265Z,87.92
2022-12-08T15:24:15.096Z,87.95
2022-12-08T15:26:45.745Z,87.83
2022-12-08T15:29:19.768Z,87.74
2022-12-08T15:31:49.052Z,87.79
2022-12-08T15:34:16.901Z,87.66
2022-12-08T15:36:46.592Z,87.70
2022-12-08T15:39:25.787Z,87.43
2022-12-08T15:41:53.505Z,87.60
2022-12-08T15:44:21.306Z,87.49
2022-12-08T15:46:50.947Z,87.76
2022-12-08T15:49:21.067Z,87.56
2022-12-08T15:51:49.442Z,87.23
2022-12-08T15:54:17.448Z,87.25
2022-12-08T15:57:17.549Z,87.32
2022-12-08T15:59:35.591Z,87.31
2022-12-08T16:02:04.859Z,87.30
2022-12-08T16:05:33.311Z,87.01
2022-12-08T16:07:24.709Z,87.23
2022-12-08T16:09:53.130Z,87.17
2022-12-08T16:13:40.443Z,87.41
2022-12-08T16:18:24.589Z,87.52
2022-12-08T16:21:17.049Z,87.51
2022-12-08T16:23:43.662Z,87.27
2022-12-08T16:26:35.664Z,87.17
2022-12-08T16:29:02.185Z,87.21
2022-12-08T16:31:29.918Z,87.38
2022-12-08T16:33:59.043Z,87.31
2022-12-08T16:36:26.811Z,87.29
2022-12-08T16:38:54.599Z,87.44
2022-12-08T16:41:39.986Z,87.35
2022-12-08T16:44:07.753Z,87.09
2022-12-08T16:46:36.386Z,86.80
2022-12-08T16:49:05.805Z,87.25
2022-12-08T16:51:33.617Z,87.08
2022-12-08T16:54:01.377Z,87.27
2022-12-08T16:56:32.952Z,87.36
2022-12-08T16:59:01.867Z,87.46
2022-12-08T17:01:29.968Z,87.70
2022-12-08T17:06:47.048Z,87.81
2022-12-08T17:09:14.930Z,87.49
2022-12-08T17:11:43.828Z,87.63
2022-12-08T17:14:12.491Z,87.62
2022-12-08T17:16:40.996Z,87.72
2022-12-08T17:19:08.829Z,87.78
2022-12-08T17:21:36.907Z,87.98
2022-12-08T17:24:06.359Z,87.91
2022-12-08T17:26:34.104Z,88.13
2022-12-08T17:29:03.413Z,88.39
2022-12-08T17:31:32.239Z,88.39
2022-12-08T17:34:00.670Z,88.38
2022-12-08T17:36:28.486Z,88.75
2022-12-08T17:38:56.952Z,88.84
2022-12-08T17:41:26.046Z,89.41
2022-12-08T17:43:53.812Z,89.58
2022-12-08T17:46:22.771Z,89.87
2022-12-08T17:48:50.858Z,89.98
2022-12-08T17:51:18.752Z,90.15
2022-12-08T17:53:46.512Z,90.58
2022-12-08T17:56:16.631Z,90.62
2022-12-08T17:58:49.866Z,90.81
2022-12-08T18:01:21.967Z,90.76
2022-12-08T18:03:49.855Z,90.82
2022-12-08T18:06:18.115Z,91.07
2022-12-08T18:08:45.861Z,91.18
2022-12-08T18:11:17.880Z,91.33
2022-12-08T18:13:47.280Z,91.24
2022-12-08T18:16:15.939Z,91.25
2022-12-08T18:18:43.947Z,91.63
2022-12-08T18:21:13.033Z,91.51
2022-12-08T18:23:42.664Z,91.88
2022-12-08T18:26:13.624Z,91.79
2022-12-08T18:28:41.954Z,91.75
2022-12-08T18:31:12.672Z,92.16
2022-12-08T18:33:41.964Z,92.21
2022-12-08T18:36:11.832Z,92.07
2022-12-08T18:38:40.171Z,92.21
2022-12-08T18:41:10.376Z,92.30
2022-12-08T18:43:38.591Z,92.55
2022-12-08T18:46:09.480Z,92.56
2022-12-08T18:48:40.470Z,92.70
2022-12-08T18:51:11.147Z,92.65
2022-12-08T18:53:39.624Z,92.74
2022-12-08T18:56:08.630Z,92.78
2022-12-08T18:58:36.874Z,92.79
2022-12-08T19:01:04.706Z,92.80
2022-12-08T19:03:32.534Z,93.21
2022-12-08T19:06:05.893Z,93.42
2022-12-08T19:08:34.066Z,93.27
2022-12-08T19:11:01.880Z,93.08
2022-12-08T19:13:30.444Z,93.22
2022-12-08T19:15:58.327Z,93.12
2022-12-08T19:18:26.090Z,93.10
2022-12-08T19:20:56.717Z,93.09
2022-12-08T19:23:25.936Z,92.89
2022-12-08T19:25:53.998Z,92.69
2022-12-08T19:28:21.854Z,92.87
2022-12-08T19:30:49.872Z,92.97
2022-12-08T19:33:17.759Z,92.85
2022-12-08T19:35:52.215Z,93.11
2022-12-08T19:38:20.533Z,92.94
2022-12-08T19:41:07.457Z,92.94
2022-12-08T19:43:49.093Z,92.80
2022-12-08T19:46:17.174Z,92.83
2022-12-08T19:48:45.237Z,92.75
2022-12-08T19:51:13.289Z,92.64
2022-12-08T19:53:47.356Z,92.90
2022-12-08T19:56:17.038Z,93.41
2022-12-08T19:58:44.817Z,93.72
2022-12-08T20:01:12.632Z,94.09
2022-12-08T20:03:40.563Z,94.23
2022-12-08T20:06:14.097Z,94.63
2022-12-08T20:08:46.127Z,94.63
2022-12-08T20:11:18.077Z,94.80
2022-12-08T20:13:47.725Z,94.73
2022-12-08T20:16:16.596Z,95.04
2022-12-08T20:18:45.977Z,95.13
2022-12-08T20:21:13.821Z,95.46
2022-12-08T20:23:41.626Z,95.59
2022-12-08T20:26:12.418Z,95.53
2022-12-08T20:28:41.714Z,95.68
2022-12-08T20:31:09.654Z,95.54
2022-12-08T20:33:37.448Z,95.38
2022-12-08T20:36:07.519Z,95.36
2022-12-08T20:38:35.403Z,95.28
2022-12-08T20:41:03.200Z,95.63
2022-12-08T20:43:30.962Z,95.76
2022-12-08T20:46:00.398Z,95.25
2022-12-08T20:48:28.181Z,95.63
2022-12-08T20:50:56.161Z,95.29
2022-12-08T20:53:24.017Z,95.25
2022-12-08T20:55:51.859Z,95.28
2022-12-08T20:58:19.927Z,95.67
2022-12-08T21:00:47.835Z,95.65
2022-12-08T21:03:17.579Z,95.75
2022-12-08T21:05:49.665Z,95.85
2022-12-08T21:08:17.786Z,95.65
2022-12-08T21:10:45.912Z,95.81
2022-12-08T21:13:13.725Z,95.86
2022-12-08T21:15:46.488Z,95.49
2022-12-08T21:18:14.498Z,95.33
2022-12-08T21:20:43.888Z,95.12
2022-12-08T21:23:12.348Z,95.14
2022-12-08T21:25:41.576Z,94.86
2022-12-08T21:28:09.669Z,94.66
2022-12-08T21:30:38.842Z,94.53
2022-12-08T21:33:06.817Z,95.04
2022-12-08T21:35:34.891Z,94.81
2022-12-08T21:38:05.540Z,94.55
2022-12-08T21:40:34.792Z,94.88
2022-12-08T21:43:03.785Z,94.69
2022-12-08T21:45:32.621Z,94.56
2022-12-08T21:48:04.379Z,93.88
2022-12-08T21:50:35.192Z,93.61
2022-12-08T21:53:04.583Z,93.62
2022-12-08T21:55:32.565Z,93.35
2022-12-08T21:58:01.021Z,93.10
2022-12-08T22:00:29.227Z,93.06
2022-12-08T22:02:57.648Z,92.99
2022-12-08T22:05:25.490Z,93.05
2022-12-08T22:07:53.307Z,93.04
2022-12-08T22:10:23.421Z,92.96
2022-12-08T22:12:51.390Z,92.84
2022-12-08T22:15:19.535Z,92.42
2022-12-08T22:17:47.576Z,92.49
2022-12-08T22:20:16.863Z,92.43
2022-12-08T22:22:45.601Z,92.20
2022-12-08T22:25:13.750Z,92.39
2022-12-08T22:27:43.129Z,92.59
2022-12-08T22:30:12.361Z,92.63
2022-12-08T22:32:40.406Z,92.73
2022-12-08T22:35:08.830Z,93.32
2022-12-08T22:37:36.531Z,93.23
2022-12-08T22:40:05.372Z,92.88
2022-12-08T22:42:33.648Z,93.24
2022-12-08T22:45:03.982Z,93.17
2022-12-08T22:47:32.089Z,93.63
2022-12-08T22:49:59.990Z,93.27
2022-12-08T22:52:27.850Z,93.46
2022-12-08T22:54:55.778Z,93.49
2022-12-08T22:57:23.781Z,93.74
2022-12-08T22:59:51.733Z,94.08
2022-12-08T23:02:20.993Z,94.11
2022-12-08T23:04:49.354Z,93.99
2022-12-08T23:07:17.352Z,94.17
2022-12-08T23:09:45.366Z,94.13
2022-12-08T23:12:13.638Z,94.36
2022-12-08T23:14:41.630Z,94.89
2022-12-08T23:17:09.506Z,94.77
2022-12-08T23:19:39.685Z,95.05
2022-12-08T23:22:07.555Z,95.30
2022-12-08T23:24:35.463Z,95.42
2022-12-08T23:27:03.271Z,95.95
2022-12-08T23:29:31.014Z,96.23
2022-12-08T23:31:58.967Z,96.47
2022-12-08T23:34:27.409Z,96.80
2022-12-08T23:36:56.528Z,96.55
2022-12-08T23:39:24.777Z,96.44
2022-12-08T23:41:52.803Z,96.15
2022-12-08T23:44:20.692Z,96.29
2022-12-08T23:46:48.611Z,95.96
2022-12-08T23:49:17.025Z,96.09
2022-12-08T23:51:44.710Z,95.95
2022-12-08T23:54:14.224Z,96.11
2022-12-08T23:56:42.264Z,96.12
2022-12-08T23:59:10.560Z,96.59
